Guatay, CA (91931)

4:26 PM PDT on September 17, 2014 (GMT -0700)
Falcon's Lair - Noble Cyn. | Change Station
CLOSE
Current Station
Personal Weather Station
Location: Pine Valley, CA
Elevation: 3727 ft
Nearby Weather Stations
Active Advisory: Flash Flood Watch Active Notice: Record Report

Elev 3727 ft 32.84 °N, 116.52 °W | Updated 1 minute ago

Overcast
Overcast
70.0 °F
Feels Like 70.0 °F
N
3.8
Wind Variable Wind from NE
Gusts 6.3 mph

Today
High -- | Low -- °F
--% Chance of Precip.
Yesterday
High -- | Low -- °F
Precip. -- in
6:31 AM 6:49 PM
Waning Crescent, 32% visible
Pressure 29.68 in
Visibility -9999.0 miles
Clouds
Dew Point 15 °F
Humidity 12%
Rainfall -999.00 in
Snow Depth 0 in , 0 in , 2 in
UV Not available.
Pollen 5.10 out of 12
Air Quality Not available.
Flu Activity Not available.
METAR KCZZ 172252Z AUTO 29013G19KT 31/16 A2980 RMK AO1 SLP051 T03060156

More Conditions Fewer Conditions

Pressure 29.68 in
Visibility -9999.0 miles
Clouds
Dew Point 15 °F
Humidity 12%
Rainfall -999.00 in
Snow Depth 0 in , 0 in , 2 in
UV Not available.
Pollen 5.10 out of 12
Air Quality Not available.
Flu Activity Not available.
METAR KCZZ 172252Z AUTO 29013G19KT 31/16 A2980 RMK AO1 SLP051 T03060156

More Conditions Fewer Conditions

10-Day Weather Forecast

Almanac

Astronomy

Sep. 17, 2014 Rise Set
Actual Time 6:31 AM PDT 6:49 PM PDT
Civil Twilight 6:06 AM PDT 7:14 PM PDT
Nautical Twilight 5:37 AM PDT 7:43 PM PDT
Astronomical Twilight 5:08 AM PDT 8:12 PM PDT
Moon 12:48 AM PDT 2:49 PM PDT
Length of Visible Light 13h 07m
Length of Day
12h 18m
Tomorrow will be 2m 0s shorter.
Waning Crescent, 32% of the Moon is Illuminated
Today
Waning Crescent
Sep 24
New
Oct 1
First Quarter
Oct 8
Full
Oct 15
Last Quarter

Today's Extremes

State Highs State Lows

Community

WunderPhotos

Upload Photos

1,754,189 photos uploaded!

Nearby

Snow Depth

Station Depth Elevation
Burnside Lake 0 in 8139 ft
Leavitt Meadows 0 in 7200 ft
CSS Lab 2 in 6900 ft
Adin Mountain 0 in 6200 ft

Earthquake Activity

City Distance Mag. Time & Date
La Quinta, California 46 miles 2.7 8:59 PM PDT
2014-09-15
Minimum magnitude displayed is 2.5.

Coastal Water Temperatures

Place Temperature
No Stations Reporting

Nearby Weather Stations